Sylvania, Arkansas
Current Conditions -  °F | °C
As of 11:58 AM on Sunday 21 Dec 2014 (Local Time) from KLRF Reporting Station
Few Clouds Few Clouds  
Wind Chill: 51°   Ceiling: Unl
Heat Index: 51°   Visibility: 10mi
Dew Point: 36°   Wind: 8mph
Humidity: 55%   Direction: 140°SE
Pressure: 30.1"   Gusts: NA
Location:  34.9606°N, 91.8764°W
Report Text: KLRF 211758Z AUTO 14007KT 120V180 10SM FEW080 11/02 A3010 RMK AO2 PRESFR SLP197 T01070021 10107 21021 58030
Loading
Personal Weather Stations






























Interactive Weather Map New forecast layout! Learn more

10-Day Weather Forecast

Advertisements
Track Severe Weather on mobile